createdAt,value
2022-09-15T00:01:48.655Z,92602.03
2022-09-15T00:04:19.258Z,92603.25
2022-09-15T00:06:49.319Z,92592.91
2022-09-15T00:09:20.956Z,92593.06
2022-09-15T00:11:50.858Z,92588.66
2022-09-15T00:14:21.586Z,92581.06
2022-09-15T00:16:52.211Z,92578.69
2022-09-15T00:19:22.262Z,92574.16
2022-09-15T00:21:52.257Z,92569.63
2022-09-15T00:24:23.797Z,92565.91
2022-09-15T00:26:53.895Z,92558.06
2022-09-15T00:29:24.045Z,92564.91
2022-09-15T00:31:54.040Z,92558.03
2022-09-15T00:34:24.108Z,92555.41
2022-09-15T00:36:54.115Z,92551.97
2022-09-15T00:39:25.627Z,92550.88
2022-09-15T00:41:55.534Z,92547.81
2022-09-15T00:45:01.657Z,92541.88
2022-09-15T00:47:36.337Z,92541.34
2022-09-15T00:52:12.299Z,92540.22
2022-09-15T00:54:47.822Z,92539.16
2022-09-15T00:57:22.464Z,92540.94
2022-09-15T00:59:53.438Z,92540.22
2022-09-15T01:02:26.990Z,92542.97
2022-09-15T01:04:58.997Z,92545.75
2022-09-15T01:07:39.788Z,92545.56
2022-09-15T01:10:14.294Z,92544.84
2022-09-15T01:12:44.795Z,92549.97
2022-09-15T01:15:14.878Z,92546.09
2022-09-15T01:18:03.398Z,92547.50
2022-09-15T01:21:08.617Z,92542.03
2022-09-15T01:24:39.659Z,92536.94
2022-09-15T01:27:40.961Z,92540.44
2022-09-15T01:30:15.230Z,92542.38
2022-09-15T01:33:08.595Z,92542.94
2022-09-15T01:35:55.156Z,92545.44
2022-09-15T01:38:37.340Z,92536.91
2022-09-15T01:41:13.784Z,92537.97
2022-09-15T01:43:52.007Z,92534.53
2022-09-15T01:46:28.299Z,92543.06
2022-09-15T01:48:59.717Z,92549.41
2022-09-15T01:51:31.204Z,92547.72
2022-09-15T01:54:04.878Z,92548.28
2022-09-15T01:56:35.115Z,92533.69
2022-09-15T01:59:05.975Z,92542.94
2022-09-15T02:01:44.235Z,92534.13
2022-09-15T02:04:23.318Z,92529.03
2022-09-15T02:07:02.855Z,92531.25
2022-09-15T02:09:38.879Z,92536.94
2022-09-15T02:12:17.958Z,92538.44
2022-09-15T02:14:57.219Z,92543.66
2022-09-15T02:17:33.104Z,92552.34
2022-09-15T02:20:15.919Z,92549.47
2022-09-15T02:22:49.418Z,92549.47
2022-09-15T02:25:24.537Z,92551.22
2022-09-15T02:27:57.774Z,92547.66
2022-09-15T02:30:29.361Z,92540.38
2022-09-15T02:33:07.143Z,92534.41
2022-09-15T02:35:39.239Z,92543.22
2022-09-15T02:38:11.554Z,92539.38
2022-09-15T02:40:45.819Z,92544.28
2022-09-15T02:43:19.695Z,92540.16
2022-09-15T02:45:49.934Z,92535.34
2022-09-15T02:48:21.355Z,92527.50
2022-09-15T02:50:51.318Z,92534.13
2022-09-15T02:53:21.278Z,92541.16
2022-09-15T02:55:51.348Z,92538.97
2022-09-15T02:58:21.228Z,92537.72
2022-09-15T03:00:51.180Z,92540.44
2022-09-15T03:03:22.695Z,92534.81
2022-09-15T03:05:52.768Z,92539.53
2022-09-15T03:08:22.838Z,92534.75
2022-09-15T03:10:52.836Z,92535.69
2022-09-15T03:13:23.260Z,92534.88
2022-09-15T03:15:53.307Z,92536.94
2022-09-15T03:18:24.895Z,92534.41
2022-09-15T03:20:59.643Z,92531.94
2022-09-15T03:23:29.775Z,92530.59
2022-09-15T03:26:00.465Z,92530.47
2022-09-15T03:28:30.834Z,92531.41
2022-09-15T03:31:00.985Z,92537.59
2022-09-15T03:33:32.731Z,92537.22
2022-09-15T03:36:03.517Z,92538.75
2022-09-15T03:38:33.655Z,92529.94
2022-09-15T03:41:06.735Z,92540.41
2022-09-15T03:43:37.397Z,92535.00
2022-09-15T03:46:09.972Z,92546.81
2022-09-15T03:48:42.119Z,92551.22
2022-09-15T03:53:06.841Z,92538.00
2022-09-15T03:55:36.841Z,92538.00
2022-09-15T03:58:06.858Z,92537.31
2022-09-15T04:00:36.932Z,92538.00
2022-09-15T04:03:07.658Z,92535.38
2022-09-15T04:05:37.691Z,92546.00
2022-09-15T04:08:09.359Z,92540.50
2022-09-15T04:10:41.955Z,92545.34
2022-09-15T04:13:11.745Z,92544.13
2022-09-15T04:15:41.598Z,92543.84
2022-09-15T04:18:12.436Z,92549.00
2022-09-15T04:20:43.507Z,92543.75
2022-09-15T04:23:15.063Z,92548.28
2022-09-15T04:25:44.999Z,92549.97
2022-09-15T04:28:15.038Z,92549.81
2022-09-15T04:30:44.954Z,92552.28
2022-09-15T04:33:14.876Z,92559.63
2022-09-15T04:35:44.859Z,92561.03
2022-09-15T04:38:16.422Z,92551.78
2022-09-15T04:40:46.363Z,92562.59
2022-09-15T04:43:16.485Z,92568.34
2022-09-15T04:45:46.359Z,92558.34
2022-09-15T04:48:16.546Z,92559.16
2022-09-15T04:50:46.635Z,92557.69
2022-09-15T04:53:18.600Z,92560.72
2022-09-15T04:55:48.551Z,92551.22
2022-09-15T04:58:18.520Z,92558.28
2022-09-15T05:00:48.419Z,92552.78
2022-09-15T05:03:18.516Z,92553.16
2022-09-15T05:05:50.736Z,92550.16
2022-09-15T05:08:22.158Z,92551.63
2022-09-15T05:10:52.140Z,92546.09
2022-09-15T05:13:22.164Z,92549.41
2022-09-15T05:15:52.228Z,92549.91
2022-09-15T05:18:22.299Z,92542.69
2022-09-15T05:20:52.420Z,92549.00
2022-09-15T05:23:23.774Z,92543.84
2022-09-15T05:25:58.475Z,92533.53
2022-09-15T05:28:28.715Z,92540.75
2022-09-15T05:30:59.093Z,92543.41
2022-09-15T05:33:29.118Z,92545.47
2022-09-15T05:36:01.138Z,92547.28
2022-09-15T05:38:35.063Z,92543.66
2022-09-15T05:41:06.038Z,92548.63
2022-09-15T05:43:37.575Z,92565.38
2022-09-15T05:46:09.214Z,92552.03
2022-09-15T05:48:39.589Z,92559.25
2022-09-15T05:51:09.879Z,92553.28
2022-09-15T05:53:42.280Z,92556.41
2022-09-15T05:56:14.577Z,92543.59
2022-09-15T05:58:46.798Z,92551.41
2022-09-15T06:01:19.347Z,92553.06
2022-09-15T06:03:50.199Z,92552.41
2022-09-15T06:06:22.134Z,92549.78
2022-09-15T06:08:59.491Z,92555.56
2022-09-15T06:11:31.780Z,92561.03
2022-09-15T06:14:03.550Z,92556.69
2022-09-15T06:16:36.046Z,92552.16
2022-09-15T06:19:06.514Z,92540.00
2022-09-15T06:21:37.303Z,92533.16
2022-09-15T06:24:11.363Z,92535.22
2022-09-15T06:26:41.337Z,92538.91
2022-09-15T06:29:14.839Z,92533.59
2022-09-15T06:31:44.934Z,92541.59
2022-09-15T06:34:14.879Z,92540.25
2022-09-15T06:36:44.880Z,92539.09
2022-09-15T06:39:16.187Z,92531.81
2022-09-15T06:42:01.847Z,92539.06
2022-09-15T06:44:33.457Z,92542.09
2022-09-15T06:47:03.487Z,92542.53
2022-09-15T06:53:06.646Z,92547.38
2022-09-15T06:55:36.662Z,92542.50
2022-09-15T06:58:06.722Z,92543.13
2022-09-15T07:00:36.718Z,92532.47
2022-09-15T07:03:06.585Z,92533.81
2022-09-15T07:05:36.761Z,92531.72
2022-09-15T07:08:08.346Z,92532.25
2022-09-15T07:10:38.262Z,92531.94
2022-09-15T07:13:08.267Z,92533.44
2022-09-15T07:15:38.800Z,92533.09
2022-09-15T07:18:09.477Z,92525.03
2022-09-15T07:20:42.297Z,92529.19
2022-09-15T07:23:13.776Z,92530.44
2022-09-15T07:25:44.520Z,92535.19
2022-09-15T07:28:14.821Z,92534.25
2022-09-15T07:30:45.755Z,92533.81
2022-09-15T07:33:17.103Z,92540.00
2022-09-15T07:35:48.076Z,92542.03
2022-09-15T07:38:19.465Z,92536.66
2022-09-15T07:40:49.720Z,92532.97
2022-09-15T07:43:19.838Z,92542.00
2022-09-15T07:45:50.142Z,92543.00
2022-09-15T07:48:23.244Z,92543.78
2022-09-15T07:50:56.454Z,92543.53
2022-09-15T07:53:29.318Z,92544.69
2022-09-15T07:55:59.557Z,92551.88
2022-09-15T07:58:30.049Z,92551.56
2022-09-15T08:01:05.881Z,92547.75
2022-09-15T08:03:36.298Z,92548.31
2022-09-15T08:06:07.058Z,92556.19
2022-09-15T08:08:40.315Z,92560.06
2022-09-15T08:11:15.107Z,92553.22
2022-09-15T08:13:48.159Z,92558.50
2022-09-15T08:16:20.646Z,92551.47
2022-09-15T08:18:51.343Z,92550.97
2022-09-15T08:21:23.698Z,92565.13
2022-09-15T08:23:57.097Z,92558.88
2022-09-15T08:26:29.093Z,92561.72
2022-09-15T08:28:59.775Z,92558.50
2022-09-15T08:31:29.834Z,92551.06
2022-09-15T08:34:04.337Z,92549.81
2022-09-15T08:36:34.260Z,92548.91
2022-09-15T08:39:07.079Z,92560.38
2022-09-15T08:41:41.858Z,92561.16
2022-09-15T08:44:28.537Z,92565.97
2022-09-15T08:47:05.673Z,92565.22
2022-09-15T08:49:52.463Z,92568.22
2022-09-15T08:52:30.677Z,92567.56
2022-09-15T08:55:08.278Z,92565.69
2022-09-15T08:57:38.368Z,92564.78
2022-09-15T09:00:17.065Z,92561.34
2022-09-15T09:03:25.936Z,92551.94
2022-09-15T09:06:05.635Z,92555.56
2022-09-15T09:09:18.154Z,92546.00
2022-09-15T09:12:04.236Z,92553.75
2022-09-15T09:14:48.524Z,92555.97
2022-09-15T09:17:41.560Z,92553.13
2022-09-15T09:20:32.410Z,92547.06
2022-09-15T09:23:05.858Z,92547.69
2022-09-15T09:25:36.487Z,92542.44
2022-09-15T09:28:14.815Z,92544.88
2022-09-15T09:30:45.283Z,92542.75
2022-09-15T09:33:29.797Z,92536.78
2022-09-15T09:36:02.881Z,92540.72
2022-09-15T09:38:37.828Z,92542.53
2022-09-15T09:41:14.197Z,92539.94
2022-09-15T09:43:47.681Z,92533.69
2022-09-15T09:46:20.578Z,92535.22
2022-09-15T09:48:56.719Z,92533.56
2022-09-15T09:53:29.415Z,92538.03
2022-09-15T09:56:25.134Z,92536.28
2022-09-15T09:58:56.875Z,92537.41
2022-09-15T10:01:28.763Z,92533.59
2022-09-15T10:04:21.476Z,92533.00
2022-09-15T10:06:51.494Z,92535.69
2022-09-15T10:09:23.359Z,92536.41
2022-09-15T10:11:57.862Z,92527.09
2022-09-15T10:14:30.936Z,92522.16
2022-09-15T10:17:08.207Z,92524.41
2022-09-15T10:19:47.979Z,92526.59
2022-09-15T10:22:29.036Z,92518.31
2022-09-15T10:25:02.060Z,92519.22
2022-09-15T10:27:35.286Z,92517.94
2022-09-15T10:30:21.754Z,92517.13
2022-09-15T10:32:51.899Z,92517.34
2022-09-15T10:35:23.383Z,92512.31
2022-09-15T10:38:07.398Z,92507.75
2022-09-15T10:40:48.099Z,92505.81
2022-09-15T10:43:36.883Z,92499.88
2022-09-15T10:46:14.646Z,92491.34
2022-09-15T10:49:03.536Z,92493.81
2022-09-15T10:51:49.697Z,92492.84
2022-09-15T10:54:47.181Z,92497.06
2022-09-15T10:57:36.958Z,92499.47
2022-09-15T11:00:12.980Z,92496.44
2022-09-15T11:03:14.496Z,92494.94
2022-09-15T11:05:56.075Z,92496.47
2022-09-15T11:08:53.266Z,92501.88
2022-09-15T11:11:33.838Z,92493.91
2022-09-15T11:14:24.537Z,92495.94
2022-09-15T11:17:14.503Z,92494.75
2022-09-15T11:20:15.717Z,92491.47
2022-09-15T11:22:52.099Z,92487.41
2022-09-15T11:25:24.838Z,92479.78
2022-09-15T11:28:01.960Z,92484.56
2022-09-15T11:30:42.456Z,92476.28
2022-09-15T11:33:24.283Z,92482.09
2022-09-15T11:36:01.074Z,92479.19
2022-09-15T11:38:43.240Z,92474.09
2022-09-15T11:41:38.625Z,92473.69
2022-09-15T11:44:21.299Z,92474.09
2022-09-15T11:47:09.658Z,92474.03
2022-09-15T11:49:46.016Z,92473.78
2022-09-15T11:52:36.168Z,92469.19
2022-09-15T11:55:19.015Z,92460.31
2022-09-15T11:57:58.917Z,92457.59
2022-09-15T12:00:29.042Z,92457.75
2022-09-15T12:03:23.606Z,92460.09
2022-09-15T12:05:59.759Z,92448.84
2022-09-15T12:08:38.075Z,92443.94
2022-09-15T12:11:15.042Z,92450.06
2022-09-15T12:13:45.135Z,92450.25
2022-09-15T12:16:15.625Z,92448.06
2022-09-15T12:18:53.032Z,92440.84
2022-09-15T12:21:32.489Z,92431.19
2022-09-15T12:24:11.468Z,92429.84
2022-09-15T12:26:43.597Z,92427.56
2022-09-15T12:29:42.246Z,92423.56
2022-09-15T12:32:29.160Z,92420.88
2022-09-15T12:35:13.371Z,92420.22
2022-09-15T12:37:48.244Z,92423.47
2022-09-15T12:40:37.068Z,92424.53
2022-09-15T12:43:23.307Z,92429.91
2022-09-15T12:46:00.083Z,92429.28
2022-09-15T12:48:33.359Z,92415.91
2022-09-15T12:53:20.565Z,92408.03
2022-09-15T12:55:55.807Z,92412.09
2022-09-15T12:58:36.784Z,92410.44
2022-09-15T13:01:36.322Z,92416.53
2022-09-15T13:04:51.785Z,92416.06
2022-09-15T13:07:56.179Z,92415.97
2022-09-15T13:10:39.805Z,92420.34
2022-09-15T13:13:32.797Z,92417.19
2022-09-15T13:16:05.351Z,92408.59
2022-09-15T13:18:36.835Z,92408.78
2022-09-15T13:21:16.087Z,92409.31
2022-09-15T13:23:50.478Z,92404.28
2022-09-15T13:26:26.277Z,92405.22
2022-09-15T13:28:58.026Z,92397.63
2022-09-15T13:31:41.519Z,92394.03
2022-09-15T13:35:17.546Z,92400.31
2022-09-15T13:38:46.510Z,92384.06
2022-09-15T13:41:48.941Z,92387.59
2022-09-15T13:45:03.214Z,92389.91
2022-09-15T13:47:49.555Z,92382.88
2022-09-15T13:50:26.840Z,92388.88
2022-09-15T13:53:25.914Z,92385.03
2022-09-15T13:55:57.337Z,92379.50
2022-09-15T14:01:24.468Z,92373.81
2022-09-15T14:03:58.835Z,92367.22
2022-09-15T14:06:35.239Z,92374.66
2022-09-15T14:09:12.568Z,92367.63
2022-09-15T14:11:44.262Z,92361.50
2022-09-15T14:14:34.321Z,92366.13
2022-09-15T14:17:04.609Z,92371.38
2022-09-15T14:19:37.717Z,92376.16
2022-09-15T14:22:27.846Z,92372.69
2022-09-15T14:24:59.698Z,92372.19
2022-09-15T14:27:32.606Z,92377.84
2022-09-15T14:30:06.743Z,92367.84
2022-09-15T14:32:41.099Z,92369.81
2022-09-15T14:35:19.765Z,92370.69
2022-09-15T14:37:52.183Z,92374.13
2022-09-15T14:40:29.248Z,92360.63
2022-09-15T14:42:59.614Z,92376.28
2022-09-15T14:48:32.078Z,92372.78
2022-09-15T14:51:07.555Z,92369.13
2022-09-15T14:53:41.257Z,92370.97
2022-09-15T14:56:14.715Z,92368.13
2022-09-15T14:58:48.559Z,92359.94
2022-09-15T15:01:25.920Z,92360.03
2022-09-15T15:04:04.434Z,92354.13
2022-09-15T15:06:38.876Z,92358.63
2022-09-15T15:09:19.926Z,92361.16
2022-09-15T15:11:53.519Z,92360.41
2022-09-15T15:17:06.323Z,92357.16
2022-09-15T15:19:40.100Z,92358.81
2022-09-15T15:22:18.337Z,92357.66
2022-09-15T15:24:51.638Z,92358.34
2022-09-15T15:27:43.795Z,92365.41
2022-09-15T15:30:29.998Z,92361.56
2022-09-15T15:33:03.134Z,92359.56
2022-09-15T15:35:36.035Z,92363.91
2022-09-15T15:38:09.934Z,92351.81
2022-09-15T15:40:42.686Z,92356.56
2022-09-15T15:43:26.647Z,92350.03
2022-09-15T15:46:01.327Z,92357.91
2022-09-15T15:48:38.188Z,92354.41
2022-09-15T15:53:06.164Z,92355.31
2022-09-15T15:55:43.495Z,92367.00
2022-09-15T15:58:15.708Z,92352.81
2022-09-15T16:00:48.562Z,92365.34
2022-09-15T16:03:20.316Z,92364.72
2022-09-15T16:05:54.114Z,92358.63
2022-09-15T16:08:29.739Z,92355.34
2022-09-15T16:11:00.982Z,92353.28
2022-09-15T16:13:32.069Z,92356.56
2022-09-15T16:16:03.735Z,92349.94
2022-09-15T16:18:33.807Z,92352.38
2022-09-15T16:21:03.779Z,92351.97
2022-09-15T16:23:36.174Z,92363.84
2022-09-15T16:26:09.334Z,92370.16
2022-09-15T16:28:39.315Z,92365.34
2022-09-15T16:31:13.099Z,92365.94
2022-09-15T16:33:43.638Z,92365.44
2022-09-15T16:36:16.678Z,92357.81
2022-09-15T16:38:49.122Z,92372.03
2022-09-15T16:41:23.298Z,92372.59
2022-09-15T16:43:53.625Z,92365.75
2022-09-15T16:46:23.717Z,92366.84
2022-09-15T16:48:53.858Z,92372.84
2022-09-15T16:51:30.964Z,92367.50
2022-09-15T16:54:03.003Z,92367.84
2022-09-15T16:56:33.067Z,92365.25
2022-09-15T16:59:03.133Z,92367.19
2022-09-15T17:01:33.417Z,92374.31
2022-09-15T17:04:05.337Z,92380.72
2022-09-15T17:06:35.315Z,92373.28
2022-09-15T17:09:07.240Z,92375.84
2022-09-15T17:11:37.178Z,92373.09
2022-09-15T17:14:07.535Z,92380.34
2022-09-15T17:16:39.662Z,92371.84
2022-09-15T17:19:09.277Z,92367.50
2022-09-15T17:21:39.662Z,92368.88
2022-09-15T17:24:11.856Z,92369.59
2022-09-15T17:26:41.778Z,92376.47
2022-09-15T17:29:11.694Z,92369.91
2022-09-15T17:31:41.772Z,92367.28
2022-09-15T17:34:16.060Z,92371.84
2022-09-15T17:36:46.239Z,92369.91
2022-09-15T17:39:17.677Z,92374.13
2022-09-15T17:41:47.753Z,92370.50
2022-09-15T17:44:17.676Z,92375.34
2022-09-15T17:46:47.542Z,92373.97
2022-09-15T17:49:17.707Z,92382.19
2022-09-15T17:51:47.698Z,92373.44
2022-09-15T17:54:19.299Z,92375.63
2022-09-15T17:56:49.313Z,92375.16
2022-09-15T17:59:19.315Z,92373.84
2022-09-15T18:01:49.961Z,92378.13
2022-09-15T18:04:20.039Z,92372.78
2022-09-15T18:06:50.074Z,92375.97
2022-09-15T18:09:21.716Z,92380.97
2022-09-15T18:14:29.343Z,92383.19
2022-09-15T18:16:59.405Z,92381.28
2022-09-15T18:19:29.388Z,92381.78
2022-09-15T18:21:59.518Z,92388.22
2022-09-15T18:24:31.196Z,92378.34
2022-09-15T18:27:01.077Z,92382.53
2022-09-15T18:29:31.099Z,92378.25
2022-09-15T18:32:03.494Z,92376.03
2022-09-15T18:34:34.023Z,92381.31
2022-09-15T18:37:04.423Z,92380.66
2022-09-15T18:39:35.927Z,92375.38
2022-09-15T18:42:06.266Z,92370.47
2022-09-15T18:44:36.137Z,92372.63
2022-09-15T18:47:06.635Z,92374.16
2022-09-15T18:53:06.814Z,92360.00
2022-09-15T18:55:36.706Z,92361.34
2022-09-15T18:58:06.725Z,92361.69
2022-09-15T19:00:36.640Z,92358.56
2022-09-15T19:03:09.748Z,92362.56
2022-09-15T19:05:40.443Z,92357.13
2022-09-15T19:08:12.107Z,92355.81
2022-09-15T19:10:44.567Z,92358.16
2022-09-15T19:13:16.007Z,92361.31
2022-09-15T19:15:48.111Z,92366.06
2022-09-15T19:18:19.295Z,92367.22
2022-09-15T19:20:49.315Z,92365.44
2022-09-15T19:23:20.795Z,92362.00
2022-09-15T19:25:50.704Z,92359.69
2022-09-15T19:28:20.602Z,92357.06
2022-09-15T19:30:51.073Z,92351.63
2022-09-15T19:33:21.202Z,92356.25
2022-09-15T19:36:04.935Z,92352.13
2022-09-15T19:38:43.769Z,92353.63
2022-09-15T19:41:16.817Z,92355.28
2022-09-15T19:43:47.069Z,92349.53
2022-09-15T19:46:20.257Z,92348.06
2022-09-15T19:48:50.419Z,92350.19
2022-09-15T19:51:21.240Z,92344.41
2022-09-15T19:53:54.972Z,92346.22
2022-09-15T19:56:27.684Z,92342.59
2022-09-15T19:58:59.799Z,92337.16
2022-09-15T20:01:33.015Z,92333.22
2022-09-15T20:04:03.635Z,92332.22
2022-09-15T20:06:33.735Z,92331.56
2022-09-15T20:09:05.477Z,92346.06
2022-09-15T20:11:36.301Z,92348.88
2022-09-15T20:14:07.534Z,92341.47
2022-09-15T20:16:38.029Z,92337.00
2022-09-15T20:19:08.228Z,92343.59
2022-09-15T20:21:55.565Z,92347.75
2022-09-15T20:24:27.819Z,92342.28
2022-09-15T20:26:59.249Z,92342.78
2022-09-15T20:29:29.403Z,92342.97
2022-09-15T20:31:59.436Z,92337.84
2022-09-15T20:34:29.457Z,92341.97
2022-09-15T20:36:59.461Z,92342.66
2022-09-15T20:39:31.038Z,92345.78
2022-09-15T20:42:01.058Z,92341.84
2022-09-15T20:44:31.164Z,92336.06
2022-09-15T20:47:01.137Z,92328.97
2022-09-15T20:49:31.267Z,92323.38
2022-09-15T20:52:01.255Z,92316.59
2022-09-15T20:54:32.938Z,92326.00
2022-09-15T20:57:03.240Z,92314.16
2022-09-15T20:59:33.227Z,92313.97
2022-09-15T21:02:05.078Z,92312.50
2022-09-15T21:04:35.670Z,92312.66
2022-09-15T21:07:05.725Z,92319.41
2022-09-15T21:09:37.439Z,92331.59
2022-09-15T21:12:08.036Z,92323.34
2022-09-15T21:14:38.019Z,92320.03
2022-09-15T21:17:08.015Z,92326.47
2022-09-15T21:19:39.899Z,92318.38
2022-09-15T21:22:09.940Z,92315.09
2022-09-15T21:24:41.355Z,92317.72
2022-09-15T21:27:30.878Z,92313.94
2022-09-15T21:30:00.938Z,92311.81
2022-09-15T21:32:30.899Z,92302.09
2022-09-15T21:35:00.849Z,92305.53
2022-09-15T21:37:32.314Z,92300.25
2022-09-15T21:40:04.164Z,92304.03
2022-09-15T21:42:34.325Z,92303.06
2022-09-15T21:45:04.302Z,92306.66
2022-09-15T21:47:34.602Z,92310.31
2022-09-15T21:53:06.277Z,92300.56
2022-09-15T21:55:39.253Z,92307.97
2022-09-15T21:58:09.238Z,92301.41
2022-09-15T22:00:40.762Z,92307.31
2022-09-15T22:03:11.179Z,92305.34
2022-09-15T22:05:42.497Z,92315.38
2022-09-15T22:08:14.679Z,92307.63
2022-09-15T22:10:46.175Z,92316.69
2022-09-15T22:13:16.117Z,92312.06
2022-09-15T22:15:46.019Z,92318.13
2022-09-15T22:18:15.984Z,92310.22
2022-09-15T22:20:46.182Z,92323.88
2022-09-15T22:23:18.007Z,92325.56
2022-09-15T22:25:47.907Z,92338.53
2022-09-15T22:28:17.805Z,92329.16
2022-09-15T22:30:47.634Z,92336.69
2022-09-15T22:33:17.554Z,92323.53
2022-09-15T22:35:50.162Z,92320.69
2022-09-15T22:38:21.884Z,92329.22
2022-09-15T22:40:51.857Z,92325.44
2022-09-15T22:43:21.917Z,92324.63
2022-09-15T22:45:52.534Z,92325.13
2022-09-15T22:48:22.486Z,92320.00
2022-09-15T22:50:52.330Z,92327.75
2022-09-15T22:53:23.922Z,92316.41
2022-09-15T22:55:54.374Z,92321.16
2022-09-15T22:58:24.304Z,92323.09
2022-09-15T23:00:54.553Z,92322.47
2022-09-15T23:03:24.386Z,92325.25
2022-09-15T23:06:00.779Z,92322.75
2022-09-15T23:08:32.815Z,92320.00
2022-09-15T23:11:08.997Z,92312.50
2022-09-15T23:13:39.607Z,92319.75
2022-09-15T23:16:10.726Z,92316.81
2022-09-15T23:18:40.860Z,92310.00
2022-09-15T23:21:13.238Z,92323.66
2022-09-15T23:23:48.757Z,92314.75
2022-09-15T23:26:23.535Z,92314.31
2022-09-15T23:28:53.805Z,92310.41
2022-09-15T23:31:24.049Z,92310.44
2022-09-15T23:33:54.155Z,92307.69
2022-09-15T23:36:24.160Z,92309.97
2022-09-15T23:38:55.635Z,92311.81
2022-09-15T23:41:25.495Z,92306.41
2022-09-15T23:43:55.959Z,92307.72
2022-09-15T23:46:26.023Z,92297.69
2022-09-15T23:48:55.980Z,92306.41
2022-09-15T23:51:26.108Z,92303.63
2022-09-15T23:53:57.655Z,92298.38
2022-09-15T23:56:27.735Z,92297.03
2022-09-15T23:58:57.714Z,92301.78
